NOZ57GW EDDM-ENGM
Flight info
| Callsign | NOZ57GW |
|---|---|
| Flight time | 1h 57m |
| Altitude | 34000 |
| Route | INPUD3Q/08L INPUD Y102 UPALA M726 LASGA DCT EMBOX DCT BUMIL DCT GIMRU DCT SABAK L997 LUNIP |
| Aircraft | B738/M-SDE2E3FGHIRWXY/LB1 |
Departure
| Time | 2026-05-01 13:12 |
|---|---|
| Airport | Munich Airport (EDDM) |
Arrival
| Time | 2026-05-01 15:09 |
|---|---|
| Airport | Oslo-Gardermoen International Airport (ENGM) |
| Time | Latitude | Longitude | Altitude | Speed | Heading |
|---|---|---|---|---|---|
| 2026-05-01 12:17 | 48.34948 | 11.78370 | 1484 ft | 0 kts | 83° |
| 2026-05-01 12:56 | 48.34946 | 11.78341 | 1501 ft | 4 kts | 83° |
| 2026-05-01 12:56 | 48.34944 | 11.78317 | 1475 ft | 3 kts | 83° |
| 2026-05-01 12:56 | 48.34941 | 11.78289 | 1474 ft | 4 kts | 60° |
| 2026-05-01 12:57 | 48.34927 | 11.78271 | 1473 ft | 4 kts | 359° |
| 2026-05-01 12:57 | 48.34902 | 11.78275 | 1480 ft | 1 kts | 353° |
| 2026-05-01 13:01 | 48.34907 | 11.78274 | 1484 ft | 2 kts | 353° |
| 2026-05-01 13:01 | 48.34926 | 11.78254 | 1470 ft | 5 kts | 319° |
| 2026-05-01 13:01 | 48.35031 | 11.78216 | 1481 ft | 10 kts | 354° |
| 2026-05-01 13:02 | 48.35098 | 11.78205 | 1484 ft | 9 kts | 353° |
| 2026-05-01 13:07 | 48.35939 | 11.77316 | 1484 ft | 13 kts | 263° |
| 2026-05-01 13:07 | 48.35929 | 11.77186 | 1484 ft | 12 kts | 263° |
| 2026-05-01 13:07 | 48.35942 | 11.77065 | 1478 ft | 12 kts | 305° |
| 2026-05-01 13:08 | 48.36000 | 11.76982 | 1484 ft | 12 kts | 344° |
| 2026-05-01 13:08 | 48.36077 | 11.76965 | 1483 ft | 11 kts | 354° |
| 2026-05-01 13:08 | 48.36149 | 11.76953 | 1473 ft | 8 kts | 353° |
| 2026-05-01 13:08 | 48.36168 | 11.76950 | 1479 ft | 0 kts | 353° |
| 2026-05-01 13:09 | 48.36190 | 11.76946 | 1478 ft | 6 kts | 354° |
| 2026-05-01 13:09 | 48.36240 | 11.76939 | 1481 ft | 8 kts | 354° |
| 2026-05-01 13:09 | 48.36288 | 11.76954 | 1484 ft | 7 kts | 50° |
| 2026-05-01 13:10 | 48.36294 | 11.76992 | 1471 ft | 0 kts | 83° |
| 2026-05-01 13:11 | 48.36294 | 11.76999 | 1474 ft | 5 kts | 83° |
| 2026-05-01 13:11 | 48.36317 | 11.77295 | 1483 ft | 63 kts | 83° |
| 2026-05-01 13:11 | 48.36394 | 11.78292 | 1484 ft | 127 kts | 83° |
| 2026-05-01 13:12 | 48.36502 | 11.79839 | 1707 ft | 160 kts | 84° |
| 2026-05-01 13:12 | 48.36626 | 11.81412 | 2645 ft | 151 kts | 83° |
| 2026-05-01 13:12 | 48.36770 | 11.82991 | 3359 ft | 159 kts | 82° |
| 2026-05-01 13:12 | 48.36948 | 11.84806 | 3737 ft | 188 kts | 77° |
| 2026-05-01 13:13 | 48.37656 | 11.86540 | 4199 ft | 209 kts | 43° |
| 2026-05-01 13:13 | 48.39060 | 11.87280 | 4683 ft | 227 kts | 3° |
| 2026-05-01 13:13 | 48.40664 | 11.86942 | 5230 ft | 240 kts | 352° |
| 2026-05-01 13:13 | 48.42302 | 11.86086 | 5563 ft | 262 kts | 327° |
| 2026-05-01 13:14 | 48.43550 | 11.84066 | 6247 ft | 263 kts | 308° |
| 2026-05-01 13:14 | 48.44682 | 11.81883 | 6871 ft | 271 kts | 309° |
| 2026-05-01 13:14 | 48.45905 | 11.79582 | 7249 ft | 287 kts | 310° |
| 2026-05-01 13:14 | 48.47184 | 11.77231 | 8016 ft | 294 kts | 311° |
| 2026-05-01 13:15 | 48.48503 | 11.74849 | 8834 ft | 296 kts | 312° |
| 2026-05-01 13:15 | 48.49844 | 11.72450 | 9654 ft | 300 kts | 313° |
| 2026-05-01 13:15 | 48.51188 | 11.70068 | 10628 ft | 296 kts | 313° |
| 2026-05-01 13:15 | 48.52535 | 11.67690 | 11382 ft | 301 kts | 313° |
| 2026-05-01 13:16 | 48.53899 | 11.65280 | 12151 ft | 303 kts | 313° |
| 2026-05-01 13:16 | 48.55261 | 11.62875 | 12891 ft | 307 kts | 313° |
| 2026-05-01 13:16 | 48.56682 | 11.60454 | 13646 ft | 309 kts | 321° |
| 2026-05-01 13:17 | 48.62903 | 11.56291 | 14492 ft | 357 kts | 342° |
| 2026-05-01 13:17 | 48.65273 | 11.54938 | 14885 ft | 369 kts | 342° |
| 2026-05-01 13:18 | 48.70102 | 11.52135 | 16219 ft | 374 kts | 342° |
| 2026-05-01 13:18 | 48.72541 | 11.50722 | 16857 ft | 378 kts | 342° |
| 2026-05-01 13:18 | 48.75013 | 11.49290 | 17445 ft | 383 kts | 342° |
| 2026-05-01 13:18 | 48.77508 | 11.47843 | 18077 ft | 386 kts | 342° |
| 2026-05-01 13:19 | 48.80026 | 11.46380 | 18706 ft | 389 kts | 342° |
| 2026-05-01 13:19 | 48.82567 | 11.44902 | 19255 ft | 392 kts | 342° |
| 2026-05-01 13:19 | 48.87684 | 11.41920 | 20341 ft | 397 kts | 342° |
| 2026-05-01 13:20 | 48.90267 | 11.40412 | 20892 ft | 399 kts | 342° |
| 2026-05-01 13:20 | 48.92867 | 11.38892 | 21455 ft | 401 kts | 341° |
| 2026-05-01 13:20 | 48.95476 | 11.37365 | 21995 ft | 403 kts | 341° |
| 2026-05-01 13:21 | 49.00754 | 11.34272 | 22980 ft | 409 kts | 341° |
| 2026-05-01 13:21 | 49.03419 | 11.32707 | 23507 ft | 411 kts | 341° |
| 2026-05-01 13:21 | 49.06092 | 11.31136 | 24012 ft | 413 kts | 341° |
| 2026-05-01 13:21 | 49.08783 | 11.29552 | 24410 ft | 416 kts | 341° |
| 2026-05-01 13:22 | 49.11491 | 11.27956 | 24806 ft | 418 kts | 341° |
| 2026-05-01 13:22 | 49.14207 | 11.26354 | 25214 ft | 420 kts | 341° |
| 2026-05-01 13:22 | 49.16941 | 11.24740 | 25618 ft | 422 kts | 341° |
| 2026-05-01 13:22 | 49.19704 | 11.23184 | 25997 ft | 423 kts | 346° |
| 2026-05-01 13:23 | 49.22577 | 11.22216 | 26358 ft | 423 kts | 354° |
| 2026-05-01 13:23 | 49.25468 | 11.21971 | 26731 ft | 423 kts | 2° |
| 2026-05-01 13:23 | 49.28418 | 11.22025 | 27104 ft | 425 kts | 2° |
| 2026-05-01 13:23 | 49.31382 | 11.22106 | 27453 ft | 427 kts | 2° |
| 2026-05-01 13:24 | 49.34367 | 11.22179 | 27796 ft | 429 kts | 2° |
| 2026-05-01 13:24 | 49.37358 | 11.22232 | 28136 ft | 431 kts | 2° |
| 2026-05-01 13:24 | 49.40375 | 11.22271 | 28475 ft | 433 kts | 2° |
| 2026-05-01 13:25 | 49.46451 | 11.22326 | 28962 ft | 441 kts | 1° |
| 2026-05-01 13:25 | 49.49531 | 11.22352 | 29263 ft | 443 kts | 1° |
| 2026-05-01 13:25 | 49.52608 | 11.22378 | 29738 ft | 441 kts | 1° |
| 2026-05-01 13:25 | 49.55663 | 11.22405 | 30267 ft | 438 kts | 1° |
| 2026-05-01 13:26 | 49.58703 | 11.22423 | 30703 ft | 436 kts | 1° |
| 2026-05-01 13:26 | 49.61734 | 11.22435 | 31068 ft | 435 kts | 1° |
| 2026-05-01 13:26 | 49.64765 | 11.22446 | 31397 ft | 435 kts | 1° |
| 2026-05-01 13:26 | 49.67790 | 11.22459 | 31714 ft | 435 kts | 1° |
| 2026-05-01 13:27 | 49.70774 | 11.22472 | 32072 ft | 433 kts | 1° |
| 2026-05-01 13:27 | 49.73823 | 11.22485 | 32443 ft | 432 kts | 1° |
| 2026-05-01 13:27 | 49.79787 | 11.22511 | 33110 ft | 431 kts | 1° |
| 2026-05-01 13:28 | 49.85764 | 11.22530 | 33834 ft | 428 kts | 1° |
| 2026-05-01 13:28 | 49.88741 | 11.22539 | 34140 ft | 428 kts | 1° |
| 2026-05-01 13:29 | 49.94724 | 11.22558 | 34351 ft | 432 kts | 1° |
| 2026-05-01 13:29 | 50.00721 | 11.22577 | 34359 ft | 428 kts | 1° |
| 2026-05-01 13:31 | 50.18484 | 11.22675 | 34372 ft | 424 kts | 1° |
| 2026-05-01 13:32 | 50.33284 | 11.22780 | 34370 ft | 427 kts | 1° |
| 2026-05-01 13:33 | 50.48173 | 11.23578 | 34378 ft | 430 kts | 4° |
| 2026-05-01 13:34 | 50.60105 | 11.24473 | 34380 ft | 431 kts | 3° |
| 2026-05-01 13:35 | 50.69114 | 11.25105 | 34368 ft | 432 kts | 3° |
| 2026-05-01 13:36 | 50.78122 | 11.25740 | 34373 ft | 432 kts | 2° |
| 2026-05-01 13:36 | 50.87122 | 11.26376 | 34372 ft | 431 kts | 3° |
| 2026-05-01 13:37 | 50.92100 | 11.26729 | 34378 ft | 431 kts | 3° |
| 2026-05-01 13:37 | 50.99101 | 11.27227 | 34379 ft | 431 kts | 3° |
| 2026-05-01 13:38 | 51.08079 | 11.27868 | 34384 ft | 431 kts | 3° |
| 2026-05-01 13:39 | 51.14072 | 11.28296 | 34388 ft | 431 kts | 3° |
| 2026-05-01 13:39 | 51.20055 | 11.28726 | 34381 ft | 431 kts | 3° |
| 2026-05-01 13:40 | 51.26009 | 11.29155 | 34385 ft | 431 kts | 3° |
| 2026-05-01 13:40 | 51.32010 | 11.29587 | 34389 ft | 431 kts | 3° |
| 2026-05-01 13:41 | 51.38010 | 11.30022 | 34379 ft | 432 kts | 3° |
| 2026-05-01 13:41 | 51.44016 | 11.30457 | 34376 ft | 432 kts | 3° |
| 2026-05-01 13:42 | 51.49012 | 11.30821 | 34385 ft | 432 kts | 3° |
| 2026-05-01 13:42 | 51.55030 | 11.31259 | 34385 ft | 433 kts | 3° |
| 2026-05-01 13:43 | 51.61041 | 11.31698 | 34390 ft | 432 kts | 3° |
| 2026-05-01 13:43 | 51.67056 | 11.32139 | 34395 ft | 433 kts | 3° |
| 2026-05-01 13:44 | 51.73085 | 11.32582 | 34399 ft | 433 kts | 3° |
| 2026-05-01 13:44 | 51.79105 | 11.33026 | 34400 ft | 433 kts | 3° |
| 2026-05-01 13:45 | 51.85135 | 11.33472 | 34401 ft | 433 kts | 3° |
| 2026-05-01 13:45 | 51.91155 | 11.33917 | 34402 ft | 433 kts | 3° |
| 2026-05-01 13:46 | 51.97174 | 11.34364 | 34396 ft | 433 kts | 3° |
| 2026-05-01 13:46 | 52.03161 | 11.34810 | 34374 ft | 433 kts | 3° |
| 2026-05-01 13:47 | 52.09189 | 11.34975 | 34370 ft | 434 kts | 359° |
| 2026-05-01 13:47 | 52.15224 | 11.34575 | 34375 ft | 434 kts | 359° |
| 2026-05-01 13:48 | 52.21264 | 11.34128 | 34374 ft | 435 kts | 358° |
| 2026-05-01 13:48 | 52.27311 | 11.33731 | 34377 ft | 435 kts | 359° |
| 2026-05-01 13:49 | 52.33372 | 11.33361 | 34370 ft | 436 kts | 359° |
| 2026-05-01 13:49 | 52.39441 | 11.32999 | 34365 ft | 437 kts | 359° |
| 2026-05-01 13:50 | 52.45530 | 11.32637 | 34372 ft | 438 kts | 359° |
| 2026-05-01 13:50 | 52.51620 | 11.32274 | 34372 ft | 438 kts | 359° |
| 2026-05-01 13:51 | 52.57717 | 11.31908 | 34372 ft | 438 kts | 359° |
| 2026-05-01 13:51 | 52.63816 | 11.31540 | 34372 ft | 439 kts | 359° |
| 2026-05-01 13:52 | 52.69924 | 11.31171 | 34365 ft | 439 kts | 359° |
| 2026-05-01 13:52 | 52.75993 | 11.30803 | 34364 ft | 439 kts | 359° |
| 2026-05-01 13:53 | 52.82096 | 11.30432 | 34368 ft | 439 kts | 359° |
| 2026-05-01 13:53 | 52.91252 | 11.29874 | 34366 ft | 439 kts | 359° |
| 2026-05-01 13:54 | 52.97353 | 11.29501 | 34370 ft | 438 kts | 359° |
| 2026-05-01 13:54 | 53.03451 | 11.29126 | 34369 ft | 438 kts | 359° |
| 2026-05-01 13:55 | 53.09541 | 11.28752 | 34369 ft | 438 kts | 359° |
| 2026-05-01 13:55 | 53.15632 | 11.28507 | 34369 ft | 437 kts | 1° |
| 2026-05-01 13:56 | 53.21722 | 11.28663 | 34363 ft | 438 kts | 2° |
| 2026-05-01 13:56 | 53.27807 | 11.28859 | 34367 ft | 438 kts | 2° |
| 2026-05-01 13:57 | 53.33905 | 11.29012 | 34369 ft | 438 kts | 2° |
| 2026-05-01 13:57 | 53.40012 | 11.29135 | 34368 ft | 439 kts | 1° |
| 2026-05-01 13:58 | 53.46124 | 11.29248 | 34369 ft | 439 kts | 1° |
| 2026-05-01 13:58 | 53.52244 | 11.29362 | 34373 ft | 440 kts | 1° |
| 2026-05-01 13:59 | 53.58368 | 11.29480 | 34372 ft | 440 kts | 1° |
| 2026-05-01 13:59 | 53.64496 | 11.29598 | 34371 ft | 440 kts | 1° |
| 2026-05-01 14:00 | 53.70622 | 11.29717 | 34369 ft | 441 kts | 1° |
| 2026-05-01 14:00 | 53.76716 | 11.29834 | 34374 ft | 441 kts | 1° |
| 2026-05-01 14:01 | 53.82851 | 11.29953 | 34376 ft | 441 kts | 1° |
| 2026-05-01 14:01 | 53.88992 | 11.30072 | 34374 ft | 441 kts | 1° |
| 2026-05-01 14:02 | 53.95126 | 11.30192 | 34374 ft | 441 kts | 1° |
| 2026-05-01 14:02 | 54.01264 | 11.30312 | 34373 ft | 441 kts | 1° |
| 2026-05-01 14:03 | 54.07394 | 11.30433 | 34377 ft | 441 kts | 1° |
| 2026-05-01 14:03 | 54.13528 | 11.30554 | 34380 ft | 441 kts | 1° |
| 2026-05-01 14:04 | 54.19661 | 11.30675 | 34381 ft | 441 kts | 1° |
| 2026-05-01 14:04 | 54.24758 | 11.30776 | 34379 ft | 441 kts | 1° |
| 2026-05-01 14:05 | 54.31930 | 11.30918 | 34378 ft | 441 kts | 1° |
| 2026-05-01 14:05 | 54.38066 | 11.31040 | 34378 ft | 441 kts | 1° |
| 2026-05-01 14:06 | 54.44165 | 11.31162 | 34377 ft | 441 kts | 1° |
| 2026-05-01 14:06 | 54.50307 | 11.31286 | 34373 ft | 442 kts | 1° |
| 2026-05-01 14:07 | 54.56457 | 11.31410 | 34380 ft | 442 kts | 1° |
| 2026-05-01 14:08 | 54.65678 | 11.32101 | 34376 ft | 443 kts | 4° |
| 2026-05-01 14:08 | 54.71832 | 11.32679 | 34376 ft | 443 kts | 3° |
| 2026-05-01 14:09 | 54.77998 | 11.33225 | 34376 ft | 444 kts | 3° |
| 2026-05-01 14:09 | 54.84172 | 11.33749 | 34373 ft | 444 kts | 3° |
| 2026-05-01 14:10 | 54.90353 | 11.34268 | 34374 ft | 445 kts | 3° |
| 2026-05-01 14:10 | 54.96533 | 11.34788 | 34370 ft | 445 kts | 3° |
| 2026-05-01 14:11 | 55.02718 | 11.35310 | 34364 ft | 445 kts | 2° |
| 2026-05-01 14:11 | 55.11956 | 11.36094 | 34368 ft | 445 kts | 2° |
| 2026-05-01 14:12 | 55.18139 | 11.36621 | 34364 ft | 445 kts | 2° |
| 2026-05-01 14:12 | 55.24329 | 11.37150 | 34371 ft | 445 kts | 2° |
| 2026-05-01 14:13 | 55.29474 | 11.37592 | 34369 ft | 445 kts | 2° |
| 2026-05-01 14:13 | 55.36701 | 11.38213 | 34361 ft | 445 kts | 2° |
| 2026-05-01 14:14 | 55.42887 | 11.38747 | 34362 ft | 444 kts | 2° |
| 2026-05-01 14:14 | 55.49055 | 11.39281 | 34366 ft | 444 kts | 2° |
| 2026-05-01 14:15 | 55.55226 | 11.39817 | 34359 ft | 444 kts | 2° |
| 2026-05-01 14:15 | 55.61346 | 11.40350 | 34354 ft | 443 kts | 2° |
| 2026-05-01 14:16 | 55.67507 | 11.40888 | 34360 ft | 443 kts | 2° |
| 2026-05-01 14:16 | 55.73660 | 11.41427 | 34362 ft | 443 kts | 2° |
| 2026-05-01 14:17 | 55.79823 | 11.41969 | 34361 ft | 443 kts | 2° |
| 2026-05-01 14:17 | 55.85975 | 11.42512 | 34354 ft | 443 kts | 2° |
| 2026-05-01 14:18 | 55.92128 | 11.43057 | 34352 ft | 442 kts | 2° |
| 2026-05-01 14:18 | 55.97234 | 11.43510 | 34354 ft | 442 kts | 2° |
| 2026-05-01 14:19 | 56.04418 | 11.44150 | 34352 ft | 442 kts | 2° |
| 2026-05-01 14:19 | 56.10558 | 11.44698 | 34351 ft | 442 kts | 2° |
| 2026-05-01 14:20 | 56.19763 | 11.45524 | 34341 ft | 441 kts | 1° |
| 2026-05-01 14:21 | 56.25897 | 11.46076 | 34340 ft | 441 kts | 1° |
| 2026-05-01 14:21 | 56.32030 | 11.46631 | 34347 ft | 441 kts | 1° |
| 2026-05-01 14:22 | 56.41190 | 11.47461 | 34340 ft | 441 kts | 1° |
| 2026-05-01 14:22 | 56.47328 | 11.48020 | 34340 ft | 441 kts | 1° |
| 2026-05-01 14:23 | 56.53463 | 11.48581 | 34340 ft | 442 kts | 1° |
| 2026-05-01 14:23 | 56.59605 | 11.49144 | 34346 ft | 442 kts | 1° |
| 2026-05-01 14:24 | 56.65749 | 11.49709 | 34334 ft | 442 kts | 1° |
| 2026-05-01 14:24 | 56.71895 | 11.50276 | 34334 ft | 442 kts | 1° |
| 2026-05-01 14:25 | 56.78037 | 11.50845 | 34336 ft | 442 kts | 1° |
| 2026-05-01 14:25 | 56.84186 | 11.51416 | 34337 ft | 442 kts | 1° |
| 2026-05-01 14:26 | 56.93405 | 11.52276 | 34332 ft | 442 kts | 1° |
| 2026-05-01 14:27 | 56.99553 | 11.52851 | 34327 ft | 442 kts | 1° |
| 2026-05-01 14:27 | 57.05696 | 11.53428 | 34329 ft | 442 kts | 1° |
| 2026-05-01 14:28 | 57.13865 | 11.54199 | 34335 ft | 442 kts | 1° |
| 2026-05-01 14:28 | 57.20009 | 11.54781 | 34327 ft | 442 kts | 1° |
| 2026-05-01 14:29 | 57.26146 | 11.55364 | 34329 ft | 442 kts | 1° |
| 2026-05-01 14:30 | 57.38414 | 11.56535 | 34328 ft | 441 kts | 1° |
| 2026-05-01 14:31 | 57.47580 | 11.57415 | 34329 ft | 441 kts | 0° |
| 2026-05-01 14:31 | 57.53715 | 11.58007 | 34322 ft | 441 kts | 0° |
| 2026-05-01 14:32 | 57.59850 | 11.58601 | 34324 ft | 441 kts | 0° |
| 2026-05-01 14:32 | 57.65981 | 11.59196 | 34323 ft | 441 kts | 0° |
| 2026-05-01 14:33 | 57.72106 | 11.59793 | 34328 ft | 441 kts | 360° |
| 2026-05-01 14:33 | 57.78241 | 11.60393 | 34322 ft | 441 kts | 360° |
| 2026-05-01 14:34 | 57.84377 | 11.60995 | 34318 ft | 441 kts | 360° |
| 2026-05-01 14:34 | 57.90513 | 11.61599 | 34322 ft | 441 kts | 360° |
| 2026-05-01 14:35 | 57.96646 | 11.62205 | 34327 ft | 441 kts | 359° |
| 2026-05-01 14:35 | 58.02777 | 11.62812 | 34314 ft | 441 kts | 359° |
| 2026-05-01 14:36 | 58.08907 | 11.63422 | 34291 ft | 441 kts | 359° |
| 2026-05-01 14:36 | 58.15032 | 11.64033 | 34309 ft | 440 kts | 359° |
| 2026-05-01 14:37 | 58.21091 | 11.63497 | 34323 ft | 433 kts | 347° |
| 2026-05-01 14:37 | 58.27029 | 11.61570 | 34308 ft | 432 kts | 346° |
| 2026-05-01 14:38 | 58.32921 | 11.59642 | 34293 ft | 433 kts | 346° |
| 2026-05-01 14:38 | 58.38861 | 11.57768 | 34305 ft | 432 kts | 347° |
| 2026-05-01 14:39 | 58.44800 | 11.55921 | 34295 ft | 433 kts | 347° |
| 2026-05-01 14:39 | 58.47791 | 11.54989 | 33791 ft | 438 kts | 347° |
| 2026-05-01 14:39 | 58.50788 | 11.54054 | 33232 ft | 435 kts | 347° |
| 2026-05-01 14:39 | 58.53768 | 11.53124 | 32639 ft | 434 kts | 346° |
| 2026-05-01 14:40 | 58.56749 | 11.52191 | 31985 ft | 434 kts | 347° |
| 2026-05-01 14:40 | 58.59726 | 11.51255 | 31345 ft | 435 kts | 347° |
| 2026-05-01 14:40 | 58.62703 | 11.50320 | 30883 ft | 431 kts | 347° |
| 2026-05-01 14:40 | 58.65648 | 11.49393 | 30417 ft | 428 kts | 347° |
| 2026-05-01 14:41 | 58.68576 | 11.48470 | 29893 ft | 424 kts | 347° |
| 2026-05-01 14:41 | 58.71477 | 11.47554 | 29416 ft | 419 kts | 347° |
| 2026-05-01 14:41 | 58.74343 | 11.46646 | 28945 ft | 415 kts | 347° |
| 2026-05-01 14:41 | 58.77170 | 11.45749 | 28480 ft | 410 kts | 346° |
| 2026-05-01 14:42 | 58.79981 | 11.44855 | 28020 ft | 406 kts | 346° |
| 2026-05-01 14:42 | 58.82754 | 11.43970 | 27567 ft | 403 kts | 346° |
| 2026-05-01 14:42 | 58.85513 | 11.43088 | 27105 ft | 400 kts | 346° |
| 2026-05-01 14:42 | 58.88249 | 11.42212 | 26644 ft | 397 kts | 345° |
| 2026-05-01 14:43 | 58.90963 | 11.41341 | 26211 ft | 394 kts | 345° |
| 2026-05-01 14:43 | 58.93627 | 11.40485 | 25772 ft | 392 kts | 345° |
| 2026-05-01 14:43 | 58.96339 | 11.39613 | 25338 ft | 389 kts | 345° |
| 2026-05-01 14:43 | 58.99003 | 11.38754 | 24902 ft | 387 kts | 345° |
| 2026-05-01 14:44 | 59.01615 | 11.37910 | 24478 ft | 385 kts | 345° |
| 2026-05-01 14:44 | 59.06873 | 11.36209 | 23573 ft | 382 kts | 345° |
| 2026-05-01 14:44 | 59.09466 | 11.35374 | 23395 ft | 372 kts | 345° |
| 2026-05-01 14:45 | 59.11978 | 11.34489 | 23237 ft | 361 kts | 341° |
| 2026-05-01 14:45 | 59.16713 | 11.32305 | 22955 ft | 340 kts | 341° |
| 2026-05-01 14:45 | 59.19089 | 11.32027 | 22707 ft | 349 kts | 4° |
| 2026-05-01 14:46 | 59.21442 | 11.33267 | 22432 ft | 350 kts | 11° |
| 2026-05-01 14:46 | 59.26062 | 11.36270 | 21726 ft | 348 kts | 12° |
| 2026-05-01 14:46 | 59.28353 | 11.37766 | 21394 ft | 346 kts | 12° |
| 2026-05-01 14:47 | 59.30633 | 11.39235 | 21058 ft | 344 kts | 11° |
| 2026-05-01 14:47 | 59.32901 | 11.40680 | 20734 ft | 342 kts | 11° |
| 2026-05-01 14:47 | 59.35163 | 11.42115 | 20401 ft | 340 kts | 11° |
| 2026-05-01 14:48 | 59.39631 | 11.44944 | 19785 ft | 338 kts | 10° |
| 2026-05-01 14:48 | 59.41869 | 11.46364 | 19461 ft | 337 kts | 10° |
| 2026-05-01 14:48 | 59.46327 | 11.49179 | 18802 ft | 336 kts | 10° |
| 2026-05-01 14:49 | 59.50766 | 11.51981 | 18123 ft | 334 kts | 9° |
| 2026-05-01 14:49 | 59.55186 | 11.54780 | 17444 ft | 332 kts | 10° |
| 2026-05-01 14:50 | 59.58112 | 11.56637 | 17012 ft | 329 kts | 10° |
| 2026-05-01 14:50 | 59.63877 | 11.60309 | 16190 ft | 325 kts | 9° |
| 2026-05-01 14:51 | 59.66024 | 11.61679 | 15913 ft | 324 kts | 9° |
| 2026-05-01 14:51 | 59.70296 | 11.64404 | 15282 ft | 321 kts | 10° |
| 2026-05-01 14:52 | 59.74540 | 11.67126 | 14662 ft | 320 kts | 9° |
| 2026-05-01 14:52 | 59.76656 | 11.68486 | 14358 ft | 319 kts | 10° |
| 2026-05-01 14:52 | 59.80846 | 11.71186 | 13693 ft | 318 kts | 10° |
| 2026-05-01 14:53 | 59.82942 | 11.72538 | 13375 ft | 316 kts | 10° |
| 2026-05-01 14:53 | 59.85031 | 11.73886 | 13067 ft | 315 kts | 10° |
| 2026-05-01 14:53 | 59.87114 | 11.75231 | 12747 ft | 315 kts | 11° |
| 2026-05-01 14:53 | 59.89198 | 11.76581 | 12415 ft | 313 kts | 11° |
| 2026-05-01 14:54 | 59.91260 | 11.77919 | 12123 ft | 311 kts | 11° |
| 2026-05-01 14:54 | 59.93316 | 11.79256 | 11819 ft | 310 kts | 11° |
| 2026-05-01 14:54 | 59.95355 | 11.80585 | 11539 ft | 308 kts | 11° |
| 2026-05-01 14:54 | 59.97387 | 11.81911 | 11239 ft | 307 kts | 11° |
| 2026-05-01 14:55 | 59.99418 | 11.83238 | 10917 ft | 306 kts | 11° |
| 2026-05-01 14:55 | 60.01443 | 11.84561 | 10627 ft | 305 kts | 11° |
| 2026-05-01 14:55 | 60.03459 | 11.85882 | 10322 ft | 305 kts | 12° |
| 2026-05-01 14:55 | 60.05479 | 11.87208 | 10019 ft | 305 kts | 12° |
| 2026-05-01 14:56 | 60.07492 | 11.88531 | 9690 ft | 305 kts | 12° |
| 2026-05-01 14:56 | 60.09504 | 11.89854 | 9366 ft | 303 kts | 11° |
| 2026-05-01 14:56 | 60.11521 | 11.90388 | 9063 ft | 285 kts | 343° |
| 2026-05-01 14:56 | 60.13263 | 11.88886 | 8831 ft | 267 kts | 319° |
| 2026-05-01 14:57 | 60.14732 | 11.86635 | 8572 ft | 265 kts | 314° |
| 2026-05-01 14:57 | 60.17506 | 11.81935 | 8159 ft | 255 kts | 314° |
| 2026-05-01 14:57 | 60.18845 | 11.79656 | 7984 ft | 249 kts | 314° |
| 2026-05-01 14:58 | 60.20133 | 11.77472 | 7820 ft | 242 kts | 314° |
| 2026-05-01 14:58 | 60.21410 | 11.75316 | 7672 ft | 237 kts | 314° |
| 2026-05-01 14:58 | 60.22659 | 11.73208 | 7512 ft | 231 kts | 314° |
| 2026-05-01 14:58 | 60.23878 | 11.71152 | 7370 ft | 227 kts | 314° |
| 2026-05-01 14:59 | 60.25081 | 11.69123 | 7220 ft | 224 kts | 315° |
| 2026-05-01 14:59 | 60.26278 | 11.67106 | 7079 ft | 224 kts | 315° |
| 2026-05-01 14:59 | 60.27473 | 11.65091 | 6934 ft | 224 kts | 315° |
| 2026-05-01 14:59 | 60.28666 | 11.63082 | 6761 ft | 222 kts | 316° |
| 2026-05-01 15:00 | 60.31025 | 11.59101 | 6495 ft | 223 kts | 315° |
| 2026-05-01 15:00 | 60.32216 | 11.57085 | 6313 ft | 224 kts | 316° |
| 2026-05-01 15:00 | 60.33404 | 11.55083 | 6180 ft | 222 kts | 315° |
| 2026-05-01 15:01 | 60.34569 | 11.53112 | 6016 ft | 221 kts | 316° |
| 2026-05-01 15:01 | 60.35746 | 11.51132 | 5895 ft | 220 kts | 315° |
| 2026-05-01 15:01 | 60.36922 | 11.49130 | 5696 ft | 221 kts | 314° |
| 2026-05-01 15:01 | 60.38109 | 11.47114 | 5631 ft | 227 kts | 315° |
| 2026-05-01 15:02 | 60.39339 | 11.45027 | 5528 ft | 232 kts | 315° |
| 2026-05-01 15:02 | 60.39759 | 11.44314 | 5500 ft | 232 kts | 315° |
| 2026-05-01 15:02 | 60.41616 | 11.40527 | 5305 ft | 224 kts | 289° |
| 2026-05-01 15:02 | 60.41915 | 11.37507 | 5255 ft | 219 kts | 269° |
| 2026-05-01 15:03 | 60.41757 | 11.34479 | 5223 ft | 213 kts | 259° |
| 2026-05-01 15:03 | 60.41516 | 11.31580 | 5130 ft | 206 kts | 259° |
| 2026-05-01 15:03 | 60.41291 | 11.28774 | 5078 ft | 196 kts | 260° |
| 2026-05-01 15:03 | 60.41080 | 11.26115 | 4968 ft | 185 kts | 259° |
| 2026-05-01 15:04 | 60.40889 | 11.23617 | 4848 ft | 176 kts | 259° |
| 2026-05-01 15:04 | 60.40531 | 11.21294 | 4522 ft | 173 kts | 230° |
| 2026-05-01 15:04 | 60.39522 | 11.20095 | 4358 ft | 170 kts | 205° |
| 2026-05-01 15:04 | 60.38411 | 11.19143 | 4114 ft | 176 kts | 206° |
| 2026-05-01 15:05 | 60.37272 | 11.18282 | 3891 ft | 173 kts | 201° |
| 2026-05-01 15:05 | 60.36116 | 11.17558 | 3657 ft | 173 kts | 200° |
| 2026-05-01 15:05 | 60.34959 | 11.16876 | 3407 ft | 171 kts | 199° |
| 2026-05-01 15:05 | 60.33836 | 11.16230 | 3192 ft | 164 kts | 199° |
| 2026-05-01 15:06 | 60.32775 | 11.15618 | 2961 ft | 153 kts | 199° |
| 2026-05-01 15:06 | 60.31771 | 11.15036 | 2785 ft | 150 kts | 198° |
| 2026-05-01 15:06 | 60.30789 | 11.14541 | 2610 ft | 143 kts | 197° |
| 2026-05-01 15:06 | 60.29866 | 11.13973 | 2412 ft | 138 kts | 200° |
| 2026-05-01 15:07 | 60.28910 | 11.13517 | 2220 ft | 144 kts | 193° |
| 2026-05-01 15:07 | 60.27988 | 11.12871 | 2013 ft | 137 kts | 206° |
| 2026-05-01 15:07 | 60.27108 | 11.12290 | 1816 ft | 131 kts | 197° |
| 2026-05-01 15:07 | 60.26228 | 11.11825 | 1675 ft | 130 kts | 198° |
| 2026-05-01 15:08 | 60.25332 | 11.11357 | 1468 ft | 132 kts | 196° |
| 2026-05-01 15:08 | 60.24465 | 11.10832 | 1280 ft | 132 kts | 198° |
| 2026-05-01 15:08 | 60.23592 | 11.10330 | 1148 ft | 130 kts | 196° |
| 2026-05-01 15:08 | 60.22705 | 11.09822 | 963 ft | 135 kts | 198° |
| 2026-05-01 15:09 | 60.21805 | 11.09282 | 771 ft | 135 kts | 197° |
| 2026-05-01 15:09 | 60.20930 | 11.08775 | 680 ft | 122 kts | 196° |
| 2026-05-01 15:09 | 60.20324 | 11.08424 | 676 ft | 60 kts | 196° |
| 2026-05-01 15:09 | 60.20093 | 11.08302 | 675 ft | 24 kts | 191° |
| 2026-05-01 15:10 | 60.19936 | 11.08322 | 674 ft | 16 kts | 149° |
| 2026-05-01 15:10 | 60.19871 | 11.08589 | 677 ft | 10 kts | 106° |
| 2026-05-01 15:10 | 60.19853 | 11.08720 | 675 ft | 10 kts | 105° |
| 2026-05-01 15:11 | 60.19833 | 11.08862 | 676 ft | 11 kts | 106° |
| 2026-05-01 15:11 | 60.19791 | 11.09146 | 680 ft | 10 kts | 105° |
| 2026-05-01 15:11 | 60.19772 | 11.09282 | 682 ft | 10 kts | 106° |
| 2026-05-01 15:12 | 60.19753 | 11.09415 | 682 ft | 10 kts | 106° |
| 2026-05-01 15:12 | 60.19718 | 11.09668 | 680 ft | 9 kts | 106° |
| 2026-05-01 15:12 | 60.19699 | 11.09776 | 684 ft | 7 kts | 111° |
| 2026-05-01 15:13 | 60.19674 | 11.09952 | 682 ft | 2 kts | 106° |
| 2026-05-01 15:14 | 60.19670 | 11.09974 | 684 ft | 0 kts | 106° |